Flight Track Log - Related Links

Times and Time Zones

All times are in EDT time to prevent confusion due to time zone crossing. See the SWA3497 flight status page for this flight to view local times or setup timezone preferences in your user account.

Time Position Orientation Groundspeed Altitude Reporting Facility
EDT Latitude Longitude Course Direction KTS MPH feet Rate Location/Type
Mon 09:50:29 AM 38.9500 -77.5000 252° West 166 191 1,600  Level Potomac TRACON
Mon 09:51:24 AM 38.9333 -77.5667 252° West 211 243 3,500 2,215 Climbing Potomac TRACON
Mon 09:52:39 AM 38.9225 -77.6756 263° West 242 278 6,400 3,067 Climbing Washington Center
Mon 09:53:39 AM 38.9106 -77.7631 260° West 265 305 10,400 2,850 Climbing Washington Center
Mon 09:54:39 AM 38.9189 -77.8700 276° West 286 329 12,100 2,700 Climbing Washington Center
Mon 09:55:39 AM 38.9353 -77.9961 280° West 328 377 15,800 2,850 Climbing Washington Center
Mon 09:56:39 AM 38.9472 -78.1272 277° West 345 397 17,800 2,750 Climbing Washington Center
Mon 09:57:39 AM 38.9611 -78.2558 278° West 371 427 21,300 2,950 Climbing Washington Center
Mon 09:58:39 AM 38.9642 -78.3922 272° West 377 434 23,700 2,400 Climbing Washington Center
Mon 09:59:39 AM 38.9669 -78.5339 271° West 393 452 26,100 2,319 Climbing Washington Center
Mon 10:00:38 AM 38.9717 -78.6781 272° West 405 466 28,300 2,118 Climbing Washington Center
Mon 10:01:38 AM 38.9764 -78.8253 272° West 419 482 30,300 2,281 Climbing Washington Center
Mon 10:02:39 AM 38.9808 -78.9669 272° West 413 475 32,900 2,350 Climbing Washington Center
Mon 10:03:38 AM 38.9831 -79.1058 271° West 402 463 35,000 1,664 Climbing Washington Center
Mon 10:04:38 AM 38.9872 -79.2450 272° West 397 457 36,200 1,339 Climbing Washington Center
Mon 10:05:39 AM 38.9892 -79.3839 271° West 397 457 37,700 900 Climbing Washington Center
Mon 10:06:38 AM 38.9911 -79.5203 271° West 397 457 38,000 150 Climbing Washington Center
Mon 10:07:39 AM 39.0003 -79.6783 274° West 407 468 38,000  Level Washington Center
Mon 10:08:39 AM 39.0039 -79.8175 272° West 407 468 38,000  Level Washington Center
Mon 10:09:39 AM 39.0031 -79.9564 270° West 402 463 38,000  Level Washington Center
Mon 10:11:46 AM 39.0075 -80.2350 271° West 384 442 38,000  Level Indianapolis Center
Mon 10:12:48 AM 39.0069 -80.3850 270° West 387 445 38,000  Level Indianapolis Center
Mon 10:13:50 AM 39.0436 -80.4956 293° West 374 430 38,000  Level Indianapolis Center
Mon 10:14:52 AM 39.0933 -80.6094 299° West 366 421 38,000 435 Level Indianapolis Center
Mon 10:15:54 AM 39.1422 -80.7236 299° West 364 419 38,900 774 Climbing Indianapolis Center
Mon 10:16:56 AM 39.2039 -80.8622 300° West 373 429 39,600 532 Climbing Indianapolis Center
Mon 10:17:58 AM 39.2567 -80.9814 300° West 382 440 40,000 194 Climbing Indianapolis Center
Mon 10:19:00 AM 39.3086 -81.0989 300° West 380 437 40,000  Level Indianapolis Center
Mon 10:20:02 AM 39.3608 -81.2183 300° West 383 441 40,000  Level Indianapolis Center
Mon 10:21:04 AM 39.4119 -81.3367 299° West 381 438 40,000  Level Indianapolis Center
Mon 10:22:06 AM 39.4736 -81.4819 299° West 384 442 40,000  Level Indianapolis Center
Mon 10:23:08 AM 39.5256 -81.6019 299° West 384 442 40,000  Level Indianapolis Center
Mon 10:24:10 AM 39.5778 -81.7225 299° West 386 444 40,000  Level Indianapolis Center
Mon 10:25:12 AM 39.6289 -81.8433 299° West 385 443 40,000  Level Indianapolis Center
Mon 10:26:14 AM 39.6808 -81.9658 299° West 387 445 40,000  Level Indianapolis Center
Mon 10:27:16 AM 39.7333 -82.0917 299° West 386 444 40,000  Level Indianapolis Center
Mon 10:28:18 AM 39.7867 -82.2139 300° West 387 445 40,000  Level Indianapolis Center
Mon 10:29:20 AM 39.8464 -82.3581 298° West 385 443 40,000  Level Indianapolis Center
Mon 10:30:21 AM 39.8978 -82.4806 299° West 384 442 40,000  Level Indianapolis Center
Mon 10:31:23 AM 39.9497 -82.6031 299° West 384 442 40,000  Level Indianapolis Center
Mon 10:32:25 AM 40.0003 -82.7250 298° West 380 437 40,000  Level Indianapolis Center
Mon 10:33:27 AM 40.0503 -82.8458 298° West 377 434 40,000  Level Indianapolis Center
Mon 10:34:29 AM 40.0994 -82.9678 298° West 378 435 40,000  Level Indianapolis Center
Mon 10:35:31 AM 40.1503 -83.0897 299° West 382 440 40,000  Level Indianapolis Center
Mon 10:36:33 AM 40.2086 -83.2328 298° West 381 438 40,000 -195 Level Indianapolis Center
Mon 10:37:34 AM 40.2581 -83.3553 298° West 380 437 39,600 -683 Descending Indianapolis Center
Mon 10:38:36 AM 40.3069 -83.4758 298° West 374 430 38,600 -1,355 Descending Indianapolis Center
Mon 10:39:38 AM 40.3547 -83.5942 298° West 366 421 36,800 -1,790 Descending Indianapolis Center
Mon 10:40:40 AM 40.4033 -83.7150 298° West 372 428 34,900 -1,694 Descending Indianapolis Center
Mon 10:41:42 AM 40.4531 -83.8394 298° West 382 440 33,300 -1,258 Descending Indianapolis Center
Mon 10:42:44 AM 40.5008 -83.9583 298° West 367 422 32,300 -1,065 Descending Indianapolis Center
Mon 10:43:46 AM 40.5536 -84.0914 298° West 350 403 31,100 -1,065 Descending Indianapolis Center
Mon 10:44:48 AM 40.5994 -84.2067 298° West 353 406 30,100 -537 Descending Indianapolis Center
Mon 10:45:49 AM 40.6450 -84.3242 297° West 358 412 30,000 -50 Descending Indianapolis Center
Mon 10:46:49 AM 40.6869 -84.4258 299° West 358 412 30,000  Level Chicago Center
Mon 10:47:50 AM 40.7317 -84.5447 296° West 362 417 30,000  Level Chicago Center
Mon 10:48:52 AM 40.7869 -84.6861 297° West 361 415 30,000  Level Chicago Center
Mon 10:49:54 AM 40.8311 -84.8039 296° West 359 413 30,000  Level Chicago Center
Mon 10:50:56 AM 40.8986 -84.9047 312° West 372 428 30,000  Level Chicago Center
Mon 10:51:57 AM 40.9772 -84.9939 319° Northwest 374 430 30,000  Level Chicago Center
Mon 10:52:59 AM 41.0536 -85.0850 318° Northwest 371 427 30,000  Level Chicago Center
Mon 10:55:03 AM 41.2117 -85.2644 320° Northwest 373 429 30,000 -486 Level Chicago Center
Mon 10:56:04 AM 41.2908 -85.3542 320° Northwest 374 430 28,500 -2,000 Descending Chicago Center
Mon 10:57:06 AM 41.3808 -85.4586 319° Northwest 363 418 25,900 -1,839 Descending Chicago Center
Mon 10:58:08 AM 41.4589 -85.5494 319° Northwest 367 422 24,700 -1,659 Descending Chicago Center
Mon 10:59:09 AM 41.5161 -85.6558 306° West 351 404 22,500 -2,098 Descending Chicago Center
Mon 11:00:11 AM 41.5194 -85.7783 272° West 329 379 20,400 -1,920 Descending Chicago Center
Mon 11:01:14 AM 41.5217 -85.8989 271° West 324 373 18,500 -1,776 Descending Chicago Center
Mon 11:02:16 AM 41.5236 -86.0156 271° West 315 362 16,700 -1,707 Descending Chicago Center
Mon 11:03:17 AM 41.5242 -86.1303 270° West 310 357 15,000 -1,707 Descending Chicago Center
Mon 11:04:19 AM 41.5236 -86.2439 270° West 306 352 13,200 -1,887 Descending Chicago Center
Mon 11:05:21 AM 41.5225 -86.3794 269° West 305 351 11,100 -1,073 Descending Chicago Center
Mon 11:06:22 AM 41.5228 -86.4914 270° West 302 348 11,000 -146 Descending Chicago Center
Mon 11:07:24 AM 41.5206 -86.6000 268° West 293 337 10,800 -390 Descending Chicago Center
Mon 11:08:25 AM 41.5208 -86.7114 270° West 276 318 10,200 -732 Descending Chicago Center
Mon 11:09:27 AM 41.5192 -86.8081 269° West 265 305 9,300 -927 Descending Chicago Center
Mon 11:10:28 AM 41.5197 -86.9058 270° West 264 304 8,300 -976 Descending Chicago Center
Mon 11:11:30 AM 41.5172 -87.0006 268° West 264 304 7,300 -968 Descending Chicago Center
Mon 11:12:32 AM 41.5175 -87.0931 270° West 254 292 6,300 -923 Descending Chicago Center
Mon 11:13:01 AM 41.5167 -87.1500 269° West 253 291 5,900 -1,011 Descending Chicago TRACON
Mon 11:14:01 AM 41.5500 -87.2500 294° West 263 303 4,800 -905 Descending Chicago TRACON
Mon 11:15:07 AM 41.5833 -87.3333 298° West 263 303 4,000 -505 Descending Chicago TRACON
Mon 11:15:36 AM 41.5928 -87.3775 286° West 264 304 4,000  Level Chicago Center
Mon 11:16:38 AM 41.6222 -87.4633 295° West 260 299 4,000  Level Chicago Center
Mon 11:17:40 AM 41.6500 -87.5431 295° West 252 290 4,000 -195 Level Chicago Center
Mon 11:18:41 AM 41.6769 -87.6022 301° West 216 249 3,600 -690 Descending Chicago Center
Mon 11:19:07 AM 41.7000 -87.6333 315° West 187 215 3,000 -1,125 Descending Chicago TRACON
Mon 11:20:01 AM 41.7333 -87.6833 312° West 189 217 2,100 -579 Descending Chicago TRACON
Mon 11:21:01 AM 41.7833 -87.6833 360° North 187 215 1,900 -368 Descending Chicago TRACON
Mon 11:21:55 AM 41.8167 -87.7000 340° North 170 196 1,400 -556 Descending Chicago TRACON
Mon 11:24:00 AM 41.7833 -87.7500 334° Northwest  Level FlightAware Approximate

Login

Don't have an account? Register now (free) for customized features, flight alerts, and more!